sensor_id;sensor_type;location;lat;lon;timestamp;P1;durP1;ratioP1;P2;durP2;ratioP2
84115;SDS011;74211;52.234;9.860;2024-03-02T00:02:25;21.38;;;13.90;;
84115;SDS011;74211;52.234;9.860;2024-03-02T00:04:56;19.58;;;12.98;;
84115;SDS011;74211;52.234;9.860;2024-03-02T00:07:26;21.80;;;14.55;;
84115;SDS011;74211;52.234;9.860;2024-03-02T00:09:56;18.55;;;12.43;;
84115;SDS011;74211;52.234;9.860;2024-03-02T00:12:29;21.33;;;13.10;;
84115;SDS011;74211;52.234;9.860;2024-03-02T00:14:59;23.52;;;13.77;;
84115;SDS011;74211;52.234;9.860;2024-03-02T00:17:30;24.70;;;13.07;;
84115;SDS011;74211;52.234;9.860;2024-03-02T00:19:59;22.17;;;13.52;;
84115;SDS011;74211;52.234;9.860;2024-03-02T00:22:30;21.90;;;13.88;;
84115;SDS011;74211;52.234;9.860;2024-03-02T00:25:00;23.20;;;13.55;;
84115;SDS011;74211;52.234;9.860;2024-03-02T00:27:33;23.05;;;14.23;;
84115;SDS011;74211;52.234;9.860;2024-03-02T00:30:05;21.50;;;13.63;;
84115;SDS011;74211;52.234;9.860;2024-03-02T00:32:49;25.35;;;15.80;;
84115;SDS011;74211;52.234;9.860;2024-03-02T00:35:20;25.27;;;13.73;;
84115;SDS011;74211;52.234;9.860;2024-03-02T00:37:52;23.98;;;14.90;;
84115;SDS011;74211;52.234;9.860;2024-03-02T00:40:25;22.45;;;13.18;;
84115;SDS011;74211;52.234;9.860;2024-03-02T00:43:01;23.10;;;13.38;;
84115;SDS011;74211;52.234;9.860;2024-03-02T00:45:32;22.67;;;13.60;;
84115;SDS011;74211;52.234;9.860;2024-03-02T00:48:03;24.30;;;14.07;;
84115;SDS011;74211;52.234;9.860;2024-03-02T00:50:34;24.40;;;14.60;;
84115;SDS011;74211;52.234;9.860;2024-03-02T00:53:04;22.80;;;14.02;;
84115;SDS011;74211;52.234;9.860;2024-03-02T00:55:35;27.42;;;14.32;;
84115;SDS011;74211;52.234;9.860;2024-03-02T00:58:13;24.15;;;15.00;;
84115;SDS011;74211;52.234;9.860;2024-03-02T01:00:43;21.25;;;13.27;;
84115;SDS011;74211;52.234;9.860;2024-03-02T01:03:14;25.45;;;14.70;;
84115;SDS011;74211;52.234;9.860;2024-03-02T01:05:45;25.33;;;15.27;;
84115;SDS011;74211;52.234;9.860;2024-03-02T01:08:15;26.23;;;16.35;;
84115;SDS011;74211;52.234;9.860;2024-03-02T01:10:45;25.48;;;15.52;;
84115;SDS011;74211;52.234;9.860;2024-03-02T01:13:17;29.55;;;16.95;;
84115;SDS011;74211;52.234;9.860;2024-03-02T01:15:47;27.20;;;15.35;;
84115;SDS011;74211;52.234;9.860;2024-03-02T01:18:18;28.77;;;16.23;;
84115;SDS011;74211;52.234;9.860;2024-03-02T01:20:48;26.63;;;15.82;;
84115;SDS011;74211;52.234;9.860;2024-03-02T01:23:22;25.67;;;15.00;;
84115;SDS011;74211;52.234;9.860;2024-03-02T01:25:53;23.98;;;17.58;;
84115;SDS011;74211;52.234;9.860;2024-03-02T01:28:26;27.98;;;16.98;;
84115;SDS011;74211;52.234;9.860;2024-03-02T01:30:56;24.55;;;15.35;;
84115;SDS011;74211;52.234;9.860;2024-03-02T01:33:30;23.95;;;14.75;;
84115;SDS011;74211;52.234;9.860;2024-03-02T01:36:00;25.25;;;16.63;;
84115;SDS011;74211;52.234;9.860;2024-03-02T01:38:30;27.38;;;15.80;;
84115;SDS011;74211;52.234;9.860;2024-03-02T01:41:00;26.10;;;16.63;;
84115;SDS011;74211;52.234;9.860;2024-03-02T01:43:33;30.23;;;14.77;;
84115;SDS011;74211;52.234;9.860;2024-03-02T01:46:07;23.63;;;16.23;;
84115;SDS011;74211;52.234;9.860;2024-03-02T01:48:37;29.55;;;17.88;;
84115;SDS011;74211;52.234;9.860;2024-03-02T01:51:07;27.85;;;16.30;;
84115;SDS011;74211;52.234;9.860;2024-03-02T01:53:37;29.05;;;16.33;;
84115;SDS011;74211;52.234;9.860;2024-03-02T01:56:07;24.52;;;16.20;;
84115;SDS011;74211;52.234;9.860;2024-03-02T01:58:40;30.17;;;16.42;;
84115;SDS011;74211;52.234;9.860;2024-03-02T02:01:11;30.25;;;17.90;;
84115;SDS011;74211;52.234;9.860;2024-03-02T02:03:41;28.35;;;17.60;;
84115;SDS011;74211;52.234;9.860;2024-03-02T02:06:12;29.42;;;17.33;;
84115;SDS011;74211;52.234;9.860;2024-03-02T02:08:43;28.08;;;15.55;;
84115;SDS011;74211;52.234;9.860;2024-03-02T02:11:14;28.42;;;17.73;;
84115;SDS011;74211;52.234;9.860;2024-03-02T02:13:47;26.63;;;16.08;;
84115;SDS011;74211;52.234;9.860;2024-03-02T02:16:17;25.83;;;16.10;;
84115;SDS011;74211;52.234;9.860;2024-03-02T02:18:48;26.23;;;15.20;;
84115;SDS011;74211;52.234;9.860;2024-03-02T02:21:24;26.25;;;15.25;;
84115;SDS011;74211;52.234;9.860;2024-03-02T02:23:55;28.02;;;14.15;;
84115;SDS011;74211;52.234;9.860;2024-03-02T02:26:25;26.20;;;14.23;;
84115;SDS011;74211;52.234;9.860;2024-03-02T02:28:55;27.38;;;15.63;;
84115;SDS011;74211;52.234;9.860;2024-03-02T02:31:25;24.75;;;14.68;;
84115;SDS011;74211;52.234;9.860;2024-03-02T02:33:55;24.85;;;14.32;;
84115;SDS011;74211;52.234;9.860;2024-03-02T02:36:28;26.38;;;14.15;;
84115;SDS011;74211;52.234;9.860;2024-03-02T02:38:58;26.83;;;14.38;;
84115;SDS011;74211;52.234;9.860;2024-03-02T02:41:31;24.42;;;14.88;;
84115;SDS011;74211;52.234;9.860;2024-03-02T02:44:01;25.25;;;14.70;;
84115;SDS011;74211;52.234;9.860;2024-03-02T02:46:31;22.75;;;13.88;;
84115;SDS011;74211;52.234;9.860;2024-03-02T02:49:01;22.55;;;14.10;;
84115;SDS011;74211;52.234;9.860;2024-03-02T02:51:34;23.58;;;12.38;;
84115;SDS011;74211;52.234;9.860;2024-03-02T02:54:04;26.10;;;13.45;;
84115;SDS011;74211;52.234;9.860;2024-03-02T02:56:34;26.65;;;17.65;;
84115;SDS011;74211;52.234;9.860;2024-03-02T02:59:04;28.92;;;15.43;;
84115;SDS011;74211;52.234;9.860;2024-03-02T03:01:34;29.63;;;14.45;;
84115;SDS011;74211;52.234;9.860;2024-03-02T03:04:04;28.42;;;15.07;;
84115;SDS011;74211;52.234;9.860;2024-03-02T03:06:37;27.10;;;16.52;;
84115;SDS011;74211;52.234;9.860;2024-03-02T03:09:06;22.60;;;13.63;;
84115;SDS011;74211;52.234;9.860;2024-03-02T03:11:38;26.38;;;16.23;;
84115;SDS011;74211;52.234;9.860;2024-03-02T03:14:08;26.05;;;14.77;;
84115;SDS011;74211;52.234;9.860;2024-03-02T03:16:39;26.50;;;13.63;;
84115;SDS011;74211;52.234;9.860;2024-03-02T03:19:09;31.15;;;16.08;;
84115;SDS011;74211;52.234;9.860;2024-03-02T03:21:42;24.95;;;16.33;;
84115;SDS011;74211;52.234;9.860;2024-03-02T03:24:13;24.30;;;13.55;;
84115;SDS011;74211;52.234;9.860;2024-03-02T03:26:44;27.98;;;15.00;;
84115;SDS011;74211;52.234;9.860;2024-03-02T03:29:13;25.48;;;16.23;;
84115;SDS011;74211;52.234;9.860;2024-03-02T03:31:43;25.88;;;15.25;;
84115;SDS011;74211;52.234;9.860;2024-03-02T03:34:13;27.60;;;15.60;;
84115;SDS011;74211;52.234;9.860;2024-03-02T03:36:46;29.17;;;17.13;;
84115;SDS011;74211;52.234;9.860;2024-03-02T03:39:16;33.45;;;16.35;;
84115;SDS011;74211;52.234;9.860;2024-03-02T03:41:47;23.30;;;13.13;;
84115;SDS011;74211;52.234;9.860;2024-03-02T03:44:17;23.58;;;14.02;;
84115;SDS011;74211;52.234;9.860;2024-03-02T03:46:47;22.58;;;13.27;;
84115;SDS011;74211;52.234;9.860;2024-03-02T03:49:17;25.55;;;14.43;;
84115;SDS011;74211;52.234;9.860;2024-03-02T03:51:50;22.88;;;14.80;;
84115;SDS011;74211;52.234;9.860;2024-03-02T03:54:20;22.85;;;12.38;;
84115;SDS011;74211;52.234;9.860;2024-03-02T03:56:50;24.85;;;13.60;;
84115;SDS011;74211;52.234;9.860;2024-03-02T03:59:20;25.13;;;12.65;;
84115;SDS011;74211;52.234;9.860;2024-03-02T04:01:50;25.92;;;13.75;;
84115;SDS011;74211;52.234;9.860;2024-03-02T04:04:20;24.00;;;13.73;;
84115;SDS011;74211;52.234;9.860;2024-03-02T04:06:53;26.38;;;13.18;;
84115;SDS011;74211;52.234;9.860;2024-03-02T04:09:23;23.70;;;14.13;;
84115;SDS011;74211;52.234;9.860;2024-03-02T04:11:53;21.85;;;13.45;;
84115;SDS011;74211;52.234;9.860;2024-03-02T04:14:23;28.38;;;14.68;;
84115;SDS011;74211;52.234;9.860;2024-03-02T04:16:53;23.48;;;13.30;;
84115;SDS011;74211;52.234;9.860;2024-03-02T04:19:23;24.70;;;13.98;;
84115;SDS011;74211;52.234;9.860;2024-03-02T04:21:55;24.98;;;12.77;;
84115;SDS011;74211;52.234;9.860;2024-03-02T04:24:34;24.08;;;13.57;;
84115;SDS011;74211;52.234;9.860;2024-03-02T04:27:03;23.88;;;12.73;;
84115;SDS011;74211;52.234;9.860;2024-03-02T04:29:34;23.08;;;12.73;;
84115;SDS011;74211;52.234;9.860;2024-03-02T04:32:04;25.38;;;14.50;;
84115;SDS011;74211;52.234;9.860;2024-03-02T04:34:35;21.85;;;13.07;;
84115;SDS011;74211;52.234;9.860;2024-03-02T04:37:07;25.65;;;13.50;;
84115;SDS011;74211;52.234;9.860;2024-03-02T04:39:38;28.05;;;14.02;;
84115;SDS011;74211;52.234;9.860;2024-03-02T04:42:08;29.33;;;15.35;;
84115;SDS011;74211;52.234;9.860;2024-03-02T04:44:38;24.95;;;13.48;;
84115;SDS011;74211;52.234;9.860;2024-03-02T04:47:09;25.13;;;15.18;;
84115;SDS011;74211;52.234;9.860;2024-03-02T04:49:39;27.48;;;16.27;;
84115;SDS011;74211;52.234;9.860;2024-03-02T04:52:12;32.47;;;16.42;;
84115;SDS011;74211;52.234;9.860;2024-03-02T04:54:42;29.90;;;15.70;;
84115;SDS011;74211;52.234;9.860;2024-03-02T04:57:25;28.25;;;14.73;;
84115;SDS011;74211;52.234;9.860;2024-03-02T04:59:55;28.40;;;15.10;;
84115;SDS011;74211;52.234;9.860;2024-03-02T05:02:25;35.67;;;18.80;;
84115;SDS011;74211;52.234;9.860;2024-03-02T05:04:55;31.73;;;17.58;;
84115;SDS011;74211;52.234;9.860;2024-03-02T05:07:28;37.03;;;21.08;;
84115;SDS011;74211;52.234;9.860;2024-03-02T05:09:58;35.28;;;20.38;;
84115;SDS011;74211;52.234;9.860;2024-03-02T05:12:28;34.83;;;17.20;;
84115;SDS011;74211;52.234;9.860;2024-03-02T05:15:22;33.47;;;18.35;;
84115;SDS011;74211;52.234;9.860;2024-03-02T05:17:52;33.67;;;17.15;;
84115;SDS011;74211;52.234;9.860;2024-03-02T05:20:24;30.75;;;18.85;;
84115;SDS011;74211;52.234;9.860;2024-03-02T05:22:57;33.22;;;17.80;;
84115;SDS011;74211;52.234;9.860;2024-03-02T05:25:26;33.15;;;18.80;;
84115;SDS011;74211;52.234;9.860;2024-03-02T05:27:56;36.35;;;18.30;;
84115;SDS011;74211;52.234;9.860;2024-03-02T05:30:27;36.95;;;19.67;;
84115;SDS011;74211;52.234;9.860;2024-03-02T05:32:57;40.05;;;20.15;;
84115;SDS011;74211;52.234;9.860;2024-03-02T05:35:27;38.53;;;18.83;;
84115;SDS011;74211;52.234;9.860;2024-03-02T05:38:00;39.85;;;18.38;;
84115;SDS011;74211;52.234;9.860;2024-03-02T05:40:29;38.22;;;18.80;;
84115;SDS011;74211;52.234;9.860;2024-03-02T05:42:59;34.83;;;17.35;;
84115;SDS011;74211;52.234;9.860;2024-03-02T05:45:30;33.50;;;17.80;;
84115;SDS011;74211;52.234;9.860;2024-03-02T05:48:00;34.45;;;18.23;;
84115;SDS011;74211;52.234;9.860;2024-03-02T05:50:30;32.80;;;17.98;;
84115;SDS011;74211;52.234;9.860;2024-03-02T05:53:02;35.60;;;19.67;;
84115;SDS011;74211;52.234;9.860;2024-03-02T05:55:33;33.60;;;19.15;;
84115;SDS011;74211;52.234;9.860;2024-03-02T05:58:03;31.45;;;17.08;;
84115;SDS011;74211;52.234;9.860;2024-03-02T06:00:49;33.05;;;18.35;;
84115;SDS011;74211;52.234;9.860;2024-03-02T06:03:21;33.55;;;17.27;;
84115;SDS011;74211;52.234;9.860;2024-03-02T06:05:52;33.10;;;18.80;;
84115;SDS011;74211;52.234;9.860;2024-03-02T06:08:25;27.95;;;16.42;;
84115;SDS011;74211;52.234;9.860;2024-03-02T06:10:55;30.52;;;18.92;;
84115;SDS011;74211;52.234;9.860;2024-03-02T06:13:25;33.17;;;17.05;;
84115;SDS011;74211;52.234;9.860;2024-03-02T06:15:55;32.15;;;17.50;;
84115;SDS011;74211;52.234;9.860;2024-03-02T06:18:25;30.98;;;16.92;;
84115;SDS011;74211;52.234;9.860;2024-03-02T06:20:56;33.35;;;18.27;;
84115;SDS011;74211;52.234;9.860;2024-03-02T06:23:30;34.10;;;17.98;;
84115;SDS011;74211;52.234;9.860;2024-03-02T06:26:01;39.63;;;16.90;;
84115;SDS011;74211;52.234;9.860;2024-03-02T06:28:31;36.03;;;17.10;;
84115;SDS011;74211;52.234;9.860;2024-03-02T06:31:02;32.20;;;18.40;;
84115;SDS011;74211;52.234;9.860;2024-03-02T06:33:32;33.50;;;17.45;;
84115;SDS011;74211;52.234;9.860;2024-03-02T06:36:03;57.63;;;21.33;;
84115;SDS011;74211;52.234;9.860;2024-03-02T06:38:37;30.42;;;16.88;;
84115;SDS011;74211;52.234;9.860;2024-03-02T06:41:09;37.17;;;17.60;;
84115;SDS011;74211;52.234;9.860;2024-03-02T06:43:39;33.70;;;18.55;;
84115;SDS011;74211;52.234;9.860;2024-03-02T06:46:09;30.70;;;18.23;;
84115;SDS011;74211;52.234;9.860;2024-03-02T06:48:41;26.38;;;17.13;;
84115;SDS011;74211;52.234;9.860;2024-03-02T06:51:12;31.90;;;17.48;;
84115;SDS011;74211;52.234;9.860;2024-03-02T06:53:45;30.77;;;18.13;;
84115;SDS011;74211;52.234;9.860;2024-03-02T06:56:15;29.65;;;15.88;;
84115;SDS011;74211;52.234;9.860;2024-03-02T06:58:45;28.67;;;19.25;;
84115;SDS011;74211;52.234;9.860;2024-03-02T07:01:15;29.50;;;17.23;;
84115;SDS011;74211;52.234;9.860;2024-03-02T07:03:50;33.15;;;18.77;;
84115;SDS011;74211;52.234;9.860;2024-03-02T07:06:20;26.80;;;14.98;;
84115;SDS011;74211;52.234;9.860;2024-03-02T07:08:53;33.28;;;16.10;;
84115;SDS011;74211;52.234;9.860;2024-03-02T07:11:23;28.20;;;15.82;;
84115;SDS011;74211;52.234;9.860;2024-03-02T07:13:53;28.60;;;16.13;;
84115;SDS011;74211;52.234;9.860;2024-03-02T07:16:24;28.38;;;16.77;;
84115;SDS011;74211;52.234;9.860;2024-03-02T07:19:00;31.92;;;16.17;;
84115;SDS011;74211;52.234;9.860;2024-03-02T07:21:31;31.10;;;16.23;;
84115;SDS011;74211;52.234;9.860;2024-03-02T07:24:04;31.05;;;16.75;;
84115;SDS011;74211;52.234;9.860;2024-03-02T07:26:36;29.83;;;16.77;;
84115;SDS011;74211;52.234;9.860;2024-03-02T07:29:08;29.45;;;14.30;;
84115;SDS011;74211;52.234;9.860;2024-03-02T07:31:38;29.90;;;15.82;;
84115;SDS011;74211;52.234;9.860;2024-03-02T07:34:08;27.75;;;15.93;;
84115;SDS011;74211;52.234;9.860;2024-03-02T07:36:38;28.55;;;14.60;;
84115;SDS011;74211;52.234;9.860;2024-03-02T07:39:11;28.25;;;16.92;;
84115;SDS011;74211;52.234;9.860;2024-03-02T07:41:41;29.85;;;17.15;;
84115;SDS011;74211;52.234;9.860;2024-03-02T07:44:11;31.08;;;16.50;;
84115;SDS011;74211;52.234;9.860;2024-03-02T07:46:41;30.38;;;15.98;;
84115;SDS011;74211;52.234;9.860;2024-03-02T07:49:13;31.48;;;15.68;;
84115;SDS011;74211;52.234;9.860;2024-03-02T07:51:44;26.20;;;16.38;;
84115;SDS011;74211;52.234;9.860;2024-03-02T07:54:17;27.60;;;16.77;;
84115;SDS011;74211;52.234;9.860;2024-03-02T07:56:47;29.88;;;16.42;;
84115;SDS011;74211;52.234;9.860;2024-03-02T07:59:18;29.42;;;16.65;;
84115;SDS011;74211;52.234;9.860;2024-03-02T08:01:48;27.85;;;15.18;;
84115;SDS011;74211;52.234;9.860;2024-03-02T08:04:22;28.38;;;15.57;;
84115;SDS011;74211;52.234;9.860;2024-03-02T08:06:52;30.08;;;15.40;;
84115;SDS011;74211;52.234;9.860;2024-03-02T08:09:25;23.33;;;14.13;;
84115;SDS011;74211;52.234;9.860;2024-03-02T08:11:55;27.02;;;15.68;;
84115;SDS011;74211;52.234;9.860;2024-03-02T08:14:26;25.10;;;14.30;;
84115;SDS011;74211;52.234;9.860;2024-03-02T08:16:56;22.58;;;13.93;;
84115;SDS011;74211;52.234;9.860;2024-03-02T08:19:28;26.38;;;13.30;;
84115;SDS011;74211;52.234;9.860;2024-03-02T08:21:58;24.30;;;14.35;;
84115;SDS011;74211;52.234;9.860;2024-03-02T08:24:32;20.15;;;12.95;;
84115;SDS011;74211;52.234;9.860;2024-03-02T08:27:02;31.63;;;13.57;;
84115;SDS011;74211;52.234;9.860;2024-03-02T08:29:32;24.30;;;13.20;;
84115;SDS011;74211;52.234;9.860;2024-03-02T08:32:03;22.40;;;11.93;;
84115;SDS011;74211;52.234;9.860;2024-03-02T08:34:45;24.60;;;12.50;;
84115;SDS011;74211;52.234;9.860;2024-03-02T08:37:14;24.35;;;13.32;;
84115;SDS011;74211;52.234;9.860;2024-03-02T08:39:44;25.92;;;14.00;;
84115;SDS011;74211;52.234;9.860;2024-03-02T08:42:15;24.98;;;12.10;;
84115;SDS011;74211;52.234;9.860;2024-03-02T08:44:45;20.17;;;11.73;;
84115;SDS011;74211;52.234;9.860;2024-03-02T08:47:14;23.15;;;12.27;;
84115;SDS011;74211;52.234;9.860;2024-03-02T08:49:47;22.40;;;12.52;;
84115;SDS011;74211;52.234;9.860;2024-03-02T08:52:17;25.55;;;13.38;;
84115;SDS011;74211;52.234;9.860;2024-03-02T08:54:47;22.95;;;12.00;;
84115;SDS011;74211;52.234;9.860;2024-03-02T08:57:17;22.25;;;12.20;;
84115;SDS011;74211;52.234;9.860;2024-03-02T08:59:47;22.95;;;12.85;;
84115;SDS011;74211;52.234;9.860;2024-03-02T09:02:17;19.08;;;12.07;;
84115;SDS011;74211;52.234;9.860;2024-03-02T09:04:51;25.42;;;13.60;;
84115;SDS011;74211;52.234;9.860;2024-03-02T09:07:22;24.00;;;13.77;;
84115;SDS011;74211;52.234;9.860;2024-03-02T09:09:52;22.95;;;12.88;;
84115;SDS011;74211;52.234;9.860;2024-03-02T09:12:22;21.38;;;13.65;;
84115;SDS011;74211;52.234;9.860;2024-03-02T09:14:52;21.63;;;13.05;;
84115;SDS011;74211;52.234;9.860;2024-03-02T09:17:22;25.70;;;13.13;;
84115;SDS011;74211;52.234;9.860;2024-03-02T09:19:55;22.15;;;11.57;;
84115;SDS011;74211;52.234;9.860;2024-03-02T09:22:25;22.40;;;12.25;;
84115;SDS011;74211;52.234;9.860;2024-03-02T09:24:55;22.05;;;11.90;;
84115;SDS011;74211;52.234;9.860;2024-03-02T09:27:25;15.48;;;10.23;;
84115;SDS011;74211;52.234;9.860;2024-03-02T09:29:55;18.80;;;11.05;;
84115;SDS011;74211;52.234;9.860;2024-03-02T09:32:25;17.88;;;10.70;;
84115;SDS011;74211;52.234;9.860;2024-03-02T09:34:57;18.42;;;10.43;;
84115;SDS011;74211;52.234;9.860;2024-03-02T09:37:28;16.02;;;9.90;;
84115;SDS011;74211;52.234;9.860;2024-03-02T09:39:58;16.30;;;9.75;;
84115;SDS011;74211;52.234;9.860;2024-03-02T09:42:28;17.05;;;10.10;;
84115;SDS011;74211;52.234;9.860;2024-03-02T09:44:59;21.08;;;10.38;;
84115;SDS011;74211;52.234;9.860;2024-03-02T09:47:29;20.40;;;10.68;;
84115;SDS011;74211;52.234;9.860;2024-03-02T09:50:01;14.93;;;9.57;;
84115;SDS011;74211;52.234;9.860;2024-03-02T09:52:31;20.83;;;10.60;;
84115;SDS011;74211;52.234;9.860;2024-03-02T09:55:02;19.55;;;8.90;;
84115;SDS011;74211;52.234;9.860;2024-03-02T09:57:34;17.13;;;10.00;;
84115;SDS011;74211;52.234;9.860;2024-03-02T10:00:07;15.45;;;9.32;;
84115;SDS011;74211;52.234;9.860;2024-03-02T10:02:41;15.88;;;9.75;;
84115;SDS011;74211;52.234;9.860;2024-03-02T10:05:15;15.88;;;9.10;;
84115;SDS011;74211;52.234;9.860;2024-03-02T10:08:02;20.77;;;9.30;;
84115;SDS011;74211;52.234;9.860;2024-03-02T10:10:36;25.40;;;10.52;;
84115;SDS011;74211;52.234;9.860;2024-03-02T10:13:09;14.80;;;8.35;;
84115;SDS011;74211;52.234;9.860;2024-03-02T10:15:40;16.00;;;10.57;;
84115;SDS011;74211;52.234;9.860;2024-03-02T10:18:11;14.00;;;9.23;;
84115;SDS011;74211;52.234;9.860;2024-03-02T10:20:45;16.70;;;9.32;;
84115;SDS011;74211;52.234;9.860;2024-03-02T10:23:15;17.23;;;10.05;;
84115;SDS011;74211;52.234;9.860;2024-03-02T10:25:47;15.10;;;9.73;;
84115;SDS011;74211;52.234;9.860;2024-03-02T10:28:24;16.27;;;8.45;;
84115;SDS011;74211;52.234;9.860;2024-03-02T10:30:55;13.45;;;8.07;;
84115;SDS011;74211;52.234;9.860;2024-03-02T10:33:25;16.83;;;9.43;;
84115;SDS011;74211;52.234;9.860;2024-03-02T10:35:58;14.02;;;8.25;;
84115;SDS011;74211;52.234;9.860;2024-03-02T10:38:28;15.25;;;8.57;;
84115;SDS011;74211;52.234;9.860;2024-03-02T10:40:57;13.43;;;7.65;;
84115;SDS011;74211;52.234;9.860;2024-03-02T10:43:30;12.50;;;8.30;;
84115;SDS011;74211;52.234;9.860;2024-03-02T10:46:00;14.15;;;9.15;;
84115;SDS011;74211;52.234;9.860;2024-03-02T10:48:31;12.73;;;7.60;;
84115;SDS011;74211;52.234;9.860;2024-03-02T10:51:05;12.45;;;7.18;;
84115;SDS011;74211;52.234;9.860;2024-03-02T10:53:35;17.33;;;8.25;;
84115;SDS011;74211;52.234;9.860;2024-03-02T10:56:06;12.80;;;7.68;;
84115;SDS011;74211;52.234;9.860;2024-03-02T10:58:39;13.25;;;8.32;;
84115;SDS011;74211;52.234;9.860;2024-03-02T11:01:09;10.38;;;7.03;;
84115;SDS011;74211;52.234;9.860;2024-03-02T11:03:41;13.15;;;6.45;;
84115;SDS011;74211;52.234;9.860;2024-03-02T11:06:14;12.18;;;6.95;;
84115;SDS011;74211;52.234;9.860;2024-03-02T11:08:45;11.60;;;6.82;;
84115;SDS011;74211;52.234;9.860;2024-03-02T11:11:19;12.98;;;6.90;;
84115;SDS011;74211;52.234;9.860;2024-03-02T11:13:53;12.57;;;6.38;;
84115;SDS011;74211;52.234;9.860;2024-03-02T11:16:30;11.60;;;7.10;;
84115;SDS011;74211;52.234;9.860;2024-03-02T11:19:04;29.92;;;8.68;;
84115;SDS011;74211;52.234;9.860;2024-03-02T11:21:41;11.15;;;6.97;;
84115;SDS011;74211;52.234;9.860;2024-03-02T11:27:05;11.57;;;6.85;;
84115;SDS011;74211;52.234;9.860;2024-03-02T11:29:42;11.15;;;6.93;;
84115;SDS011;74211;52.234;9.860;2024-03-02T11:32:13;12.15;;;6.47;;
84115;SDS011;74211;52.234;9.860;2024-03-02T11:34:45;11.35;;;5.70;;
84115;SDS011;74211;52.234;9.860;2024-03-02T11:37:19;9.65;;;6.30;;
84115;SDS011;74211;52.234;9.860;2024-03-02T11:39:50;9.30;;;5.95;;
84115;SDS011;74211;52.234;9.860;2024-03-02T11:44:51;11.57;;;5.85;;
84115;SDS011;74211;52.234;9.860;2024-03-02T11:47:21;9.88;;;5.85;;
84115;SDS011;74211;52.234;9.860;2024-03-02T11:49:51;10.00;;;5.57;;
84115;SDS011;74211;52.234;9.860;2024-03-02T11:52:24;8.35;;;5.75;;
84115;SDS011;74211;52.234;9.860;2024-03-02T11:54:57;9.23;;;6.72;;
84115;SDS011;74211;52.234;9.860;2024-03-02T11:57:28;8.40;;;6.15;;
84115;SDS011;74211;52.234;9.860;2024-03-02T11:59:58;8.45;;;5.32;;
84115;SDS011;74211;52.234;9.860;2024-03-02T12:02:30;9.68;;;5.75;;
84115;SDS011;74211;52.234;9.860;2024-03-02T12:05:02;7.28;;;5.07;;
84115;SDS011;74211;52.234;9.860;2024-03-02T12:07:36;9.60;;;6.30;;
84115;SDS011;74211;52.234;9.860;2024-03-02T12:10:07;6.97;;;5.10;;
84115;SDS011;74211;52.234;9.860;2024-03-02T12:12:37;10.50;;;6.07;;
84115;SDS011;74211;52.234;9.860;2024-03-02T12:15:07;8.30;;;5.20;;
84115;SDS011;74211;52.234;9.860;2024-03-02T12:17:38;7.63;;;4.47;;
84115;SDS011;74211;52.234;9.860;2024-03-02T12:20:08;7.82;;;4.85;;
84115;SDS011;74211;52.234;9.860;2024-03-02T12:22:44;8.00;;;5.32;;
84115;SDS011;74211;52.234;9.860;2024-03-02T12:25:14;10.18;;;5.82;;
84115;SDS011;74211;52.234;9.860;2024-03-02T12:27:45;8.88;;;5.40;;
84115;SDS011;74211;52.234;9.860;2024-03-02T12:30:16;12.65;;;6.18;;
84115;SDS011;74211;52.234;9.860;2024-03-02T12:32:46;12.18;;;6.38;;
84115;SDS011;74211;52.234;9.860;2024-03-02T12:35:17;10.15;;;5.78;;
84115;SDS011;74211;52.234;9.860;2024-03-02T12:37:52;8.82;;;6.03;;
84115;SDS011;74211;52.234;9.860;2024-03-02T12:40:22;9.52;;;5.68;;
84115;SDS011;74211;52.234;9.860;2024-03-02T12:42:53;9.98;;;6.22;;
84115;SDS011;74211;52.234;9.860;2024-03-02T12:45:23;11.82;;;6.53;;
84115;SDS011;74211;52.234;9.860;2024-03-02T12:47:54;8.90;;;5.63;;
84115;SDS011;74211;52.234;9.860;2024-03-02T12:50:24;10.68;;;5.95;;
84115;SDS011;74211;52.234;9.860;2024-03-02T12:52:57;9.10;;;5.43;;
84115;SDS011;74211;52.234;9.860;2024-03-02T12:55:27;7.43;;;5.03;;
84115;SDS011;74211;52.234;9.860;2024-03-02T12:57:58;9.07;;;5.40;;
84115;SDS011;74211;52.234;9.860;2024-03-02T13:00:29;7.35;;;4.90;;
84115;SDS011;74211;52.234;9.860;2024-03-02T13:03:02;9.98;;;4.97;;
84115;SDS011;74211;52.234;9.860;2024-03-02T13:05:32;6.82;;;4.05;;
84115;SDS011;74211;52.234;9.860;2024-03-02T13:08:04;7.43;;;4.63;;
84115;SDS011;74211;52.234;9.860;2024-03-02T13:10:36;12.32;;;5.60;;
84115;SDS011;74211;52.234;9.860;2024-03-02T13:13:07;7.07;;;3.75;;
84115;SDS011;74211;52.234;9.860;2024-03-02T13:15:38;6.80;;;4.82;;
84115;SDS011;74211;52.234;9.860;2024-03-02T13:18:09;8.88;;;4.15;;
84115;SDS011;74211;52.234;9.860;2024-03-02T13:20:40;5.32;;;3.40;;
84115;SDS011;74211;52.234;9.860;2024-03-02T13:23:12;6.47;;;3.92;;
84115;SDS011;74211;52.234;9.860;2024-03-02T13:25:43;6.45;;;3.92;;
84115;SDS011;74211;52.234;9.860;2024-03-02T13:28:14;6.40;;;3.40;;
84115;SDS011;74211;52.234;9.860;2024-03-02T13:30:44;5.68;;;3.60;;
84115;SDS011;74211;52.234;9.860;2024-03-02T13:33:14;6.43;;;4.15;;
84115;SDS011;74211;52.234;9.860;2024-03-02T13:35:49;6.22;;;3.85;;
84115;SDS011;74211;52.234;9.860;2024-03-02T13:38:22;12.50;;;4.63;;
84115;SDS011;74211;52.234;9.860;2024-03-02T13:40:52;6.95;;;3.90;;
84115;SDS011;74211;52.234;9.860;2024-03-02T13:43:21;6.30;;;4.15;;
84115;SDS011;74211;52.234;9.860;2024-03-02T13:45:52;8.35;;;4.65;;
84115;SDS011;74211;52.234;9.860;2024-03-02T13:48:22;6.30;;;4.35;;
84115;SDS011;74211;52.234;9.860;2024-03-02T13:50:53;6.38;;;3.60;;
84115;SDS011;74211;52.234;9.860;2024-03-02T13:53:25;7.78;;;3.90;;
84115;SDS011;74211;52.234;9.860;2024-03-02T13:55:56;5.65;;;3.90;;
84115;SDS011;74211;52.234;9.860;2024-03-02T13:58:26;7.28;;;4.85;;
84115;SDS011;74211;52.234;9.860;2024-03-02T14:00:55;6.47;;;3.70;;
84115;SDS011;74211;52.234;9.860;2024-03-02T14:03:26;9.38;;;4.72;;
84115;SDS011;74211;52.234;9.860;2024-03-02T14:05:57;6.18;;;3.60;;
84115;SDS011;74211;52.234;9.860;2024-03-02T14:08:30;6.60;;;3.90;;
84115;SDS011;74211;52.234;9.860;2024-03-02T14:11:00;6.00;;;3.67;;
84115;SDS011;74211;52.234;9.860;2024-03-02T14:13:30;5.47;;;3.38;;
84115;SDS011;74211;52.234;9.860;2024-03-02T14:16:00;5.20;;;3.30;;
84115;SDS011;74211;52.234;9.860;2024-03-02T14:18:31;5.50;;;3.92;;
84115;SDS011;74211;52.234;9.860;2024-03-02T14:21:02;6.57;;;3.97;;
84115;SDS011;74211;52.234;9.860;2024-03-02T14:23:34;8.15;;;4.00;;
84115;SDS011;74211;52.234;9.860;2024-03-02T14:26:04;6.07;;;3.55;;
84115;SDS011;74211;52.234;9.860;2024-03-02T14:28:35;6.47;;;3.53;;
84115;SDS011;74211;52.234;9.860;2024-03-02T14:31:03;6.05;;;3.60;;
84115;SDS011;74211;52.234;9.860;2024-03-02T14:33:33;4.65;;;3.40;;
84115;SDS011;74211;52.234;9.860;2024-03-02T14:36:03;5.70;;;4.05;;
84115;SDS011;74211;52.234;9.860;2024-03-02T14:38:37;7.82;;;3.10;;
84115;SDS011;74211;52.234;9.860;2024-03-02T14:41:08;4.85;;;3.35;;
84115;SDS011;74211;52.234;9.860;2024-03-02T14:43:38;5.72;;;3.92;;
84115;SDS011;74211;52.234;9.860;2024-03-02T14:46:08;7.53;;;4.47;;
84115;SDS011;74211;52.234;9.860;2024-03-02T14:48:38;5.30;;;3.90;;
84115;SDS011;74211;52.234;9.860;2024-03-02T14:51:08;6.85;;;3.67;;
84115;SDS011;74211;52.234;9.860;2024-03-02T14:53:41;8.32;;;4.43;;
84115;SDS011;74211;52.234;9.860;2024-03-02T14:56:11;6.65;;;4.03;;
84115;SDS011;74211;52.234;9.860;2024-03-02T14:58:41;6.90;;;4.43;;